Time;durP1;ratioP1;P1;durP2;ratioP2;P2;SDS_P1;SDS_P2;PMS_P1;PMS_P2;Temp;Humidity;BMP_temperature;BMP_pressure;BME280_temperature;BME280_humidity;BME280_pressure;Samples;Min_cycle;Max_cycle;Signal;HPM_P1;HPM_P2
2024/04/15 00:01:00;;;;;;;17.00;8.50;;;7.70;82.90;;;;;;5503152;26;20649;-87
2024/04/15 00:03:26;;;;;;;15.60;8.83;;;7.60;83.10;;;;;;5502482;26;20242;-88
2024/04/15 00:05:51;;;;;;;19.73;8.40;;;7.70;83.20;;;;;;5502895;26;20739;-89
2024/04/15 00:08:17;;;;;;;15.90;8.90;;;7.60;83.40;;;;;;5535683;26;20258;-88
2024/04/15 00:10:42;;;;;;;16.93;8.73;;;7.80;83.20;;;;;;5535207;26;20278;-89
2024/04/15 00:13:08;;;;;;;12.83;8.67;;;7.80;83.00;;;;;;5534907;26;20226;-88
2024/04/15 00:15:33;;;;;;;24.53;21.40;;;7.70;83.10;;;;;;5535918;26;20218;-88
2024/04/15 00:17:59;;;;;;;26.10;23.40;;;7.80;83.10;;;;;;5534807;26;20561;-88
2024/04/15 00:20:29;;;;;;;26.93;24.17;;;7.70;83.10;;;;;;5534977;26;20222;-89
2024/04/15 00:22:55;;;;;;;25.03;22.37;;;7.80;83.10;;;;;;5534635;26;20179;-88
2024/04/15 00:25:21;;;;;;;28.37;23.97;;;7.80;82.90;;;;;;5535191;26;20248;-89
2024/04/15 00:27:46;;;;;;;25.70;23.00;;;7.80;82.70;;;;;;5534645;26;20584;-86
2024/04/15 00:30:12;;;;;;;25.20;23.03;;;7.80;82.80;;;;;;5535170;26;20314;-88
2024/04/15 00:32:37;;;;;;;27.10;24.27;;;7.80;82.80;;;;;;5502315;26;20656;-89
2024/04/15 00:35:03;;;;;;;28.70;24.43;;;8.00;82.60;;;;;;5534672;26;20206;-87
2024/04/15 00:37:29;;;;;;;30.83;25.43;;;8.00;82.30;;;;;;5502005;26;20225;-88
2024/04/15 00:39:55;;;;;;;26.53;24.00;;;7.80;82.90;;;;;;5535442;26;20324;-88
2024/04/15 00:42:21;;;;;;;35.30;24.63;;;7.70;83.40;;;;;;5535149;26;20674;-87
2024/04/15 00:44:46;;;;;;;27.60;24.70;;;7.70;83.70;;;;;;5502681;26;20268;-88
2024/04/15 00:47:13;;;;;;;26.20;24.03;;;7.80;83.60;;;;;;5535254;26;20223;-88
2024/04/15 00:49:39;;;;;;;28.00;25.03;;;7.70;83.50;;;;;;5535433;26;20214;-88
2024/04/15 00:52:06;;;;;;;30.53;23.37;;;7.60;83.80;;;;;;5534748;26;20561;-87
2024/04/15 00:54:34;;;;;;;23.70;21.40;;;7.50;84.60;;;;;;5502262;26;20596;-89
2024/04/15 00:57:01;;;;;;;24.30;21.20;;;7.50;85.10;;;;;;5531999;26;20781;-87
2024/04/15 00:59:28;;;;;;;35.90;24.90;;;7.50;85.10;;;;;;5534772;26;20680;-88
2024/04/15 01:01:54;;;;;;;26.60;23.87;;;7.70;84.80;;;;;;5539180;26;20758;-87
2024/04/15 01:04:20;;;;;;;29.57;26.17;;;7.60;84.30;;;;;;5538248;26;20222;-88
2024/04/15 01:06:47;;;;;;;30.90;25.53;;;7.60;84.60;;;;;;5538759;26;20206;-88
2024/04/15 01:09:13;;;;;;;29.30;26.53;;;7.60;84.40;;;;;;5539035;26;20215;-88
2024/04/15 01:11:38;;;;;;;29.40;26.63;;;7.70;84.30;;;;;;5539168;26;20272;-88
2024/04/15 01:14:04;;;;;;;33.97;30.33;;;7.70;83.70;;;;;;5538668;26;20306;-87
2024/04/15 01:16:39;;;;;;;33.57;30.63;;;7.70;82.90;;;;;;5538730;26;20206;-88
2024/04/15 01:19:05;;;;;;;33.60;30.87;;;7.70;82.20;;;;;;5539159;26;20270;-88
2024/04/15 01:21:31;;;;;;;34.43;30.93;;;7.60;81.70;;;;;;5538370;26;20268;-89
2024/04/15 01:24:06;;;;;;;36.73;33.37;;;7.40;81.60;;;;;;5539151;26;20219;-88
2024/04/15 01:26:32;;;;;;;29.37;26.87;;;7.10;82.40;;;;;;5538420;26;20182;-88
2024/04/15 01:28:58;;;;;;;33.10;30.13;;;7.20;83.60;;;;;;5538002;26;20816;-88
2024/04/15 01:31:23;;;;;;;30.57;28.13;;;7.30;83.00;;;;;;5538293;26;20298;-88
2024/04/15 01:33:49;;;;;;;32.97;30.00;;;7.40;82.80;;;;;;5538657;26;20282;-88
2024/04/15 01:36:14;;;;;;;29.23;27.10;;;7.40;82.50;;;;;;5538201;26;20274;-89
2024/04/15 01:38:40;;;;;;;31.83;29.03;;;7.30;82.30;;;;;;5505569;26;20226;-87
2024/04/15 01:41:06;;;;;;;25.67;23.33;;;7.30;82.40;;;;;;5538352;26;20234;-87
2024/04/15 01:43:31;;;;;;;28.27;26.03;;;7.20;82.40;;;;;;5537767;26;20218;-87
2024/04/15 01:45:57;;;;;;;26.63;24.30;;;7.00;82.20;;;;;;5538349;26;20314;-88
2024/04/15 01:48:22;;;;;;;29.93;27.03;;;7.00;82.20;;;;;;5538279;26;20282;-88
2024/04/15 01:50:48;;;;;;;28.50;26.50;;;6.90;81.90;;;;;;5531141;26;20261;-85
2024/04/15 01:53:13;;;;;;;15.43;13.83;;;6.90;81.40;;;;;;5497395;26;20574;-86
2024/04/15 01:55:41;;;;;;;16.20;14.50;;;6.80;81.00;;;;;;5530217;26;20207;-86
2024/04/15 01:58:07;;;;;;;19.60;15.17;;;6.80;80.80;;;;;;5530320;26;20269;-86
2024/04/15 02:00:33;;;;;;;16.53;14.47;;;6.70;80.50;;;;;;5530293;26;20214;-86
2024/04/15 02:02:58;;;;;;;18.83;13.97;;;6.60;80.80;;;;;;5496827;26;20687;-86
2024/04/15 02:05:24;;;;;;;18.33;12.00;;;6.50;82.10;;;;;;5529996;26;20670;-86
2024/04/15 02:07:49;;;;;;;14.53;10.17;;;6.30;83.70;;;;;;5530022;26;20218;-85
2024/04/15 02:10:15;;;;;;;17.97;10.20;;;6.00;85.50;;;;;;5497003;26;20229;-85
2024/04/15 02:12:40;;;;;;;15.87;8.40;;;5.90;86.50;;;;;;5529863;26;20317;-86
2024/04/15 02:15:06;;;;;;;20.33;8.20;;;5.80;87.20;;;;;;5530082;26;20214;-85
2024/04/15 02:17:32;;;;;;;16.07;8.03;;;5.80;87.60;;;;;;5530174;26;20206;-86
2024/04/15 02:19:58;;;;;;;18.50;8.97;;;5.80;87.50;;;;;;5530203;26;20218;-86
2024/04/15 02:22:23;;;;;;;13.47;8.20;;;5.90;87.40;;;;;;5530290;26;20218;-86
2024/04/15 02:24:49;;;;;;;13.77;9.43;;;5.90;86.80;;;;;;5529361;26;20222;-86
2024/04/15 02:27:14;;;;;;;14.40;9.30;;;5.80;86.50;;;;;;5497323;26;20304;-86
2024/04/15 02:29:40;;;;;;;16.03;8.40;;;5.80;86.40;;;;;;5529775;26;20686;-86
2024/04/15 02:32:06;;;;;;;13.63;8.10;;;5.60;86.80;;;;;;5530231;26;20226;-86
2024/04/15 02:34:31;;;;;;;19.33;7.27;;;5.60;87.70;;;;;;5497134;26;20729;-85
2024/04/15 02:36:57;;;;;;;14.33;6.67;;;5.60;88.30;;;;;;5529661;26;20755;-85
2024/04/15 02:39:22;;;;;;;23.07;6.90;;;5.70;88.60;;;;;;5529529;26;20234;-85
2024/04/15 02:41:48;;;;;;;15.93;6.57;;;5.70;88.90;;;;;;5529674;26;20210;-85
2024/04/15 02:44:14;;;;;;;15.30;6.60;;;5.60;89.50;;;;;;5529101;26;20222;-85
2024/04/15 02:46:39;;;;;;;19.00;6.17;;;5.50;90.00;;;;;;5529488;26;20210;-86
2024/04/15 02:49:05;;;;;;;15.80;6.27;;;5.40;90.20;;;;;;5496510;26;20621;-85
2024/04/15 02:51:31;;;;;;;21.50;6.87;;;5.30;90.40;;;;;;5529713;26;20222;-87
2024/04/15 02:53:57;;;;;;;28.67;6.63;;;5.30;90.40;;;;;;5497083;26;20765;-86
2024/04/15 02:56:22;;;;;;;20.83;6.50;;;5.30;90.30;;;;;;5529627;26;20208;-85
2024/04/15 02:58:48;;;;;;;15.93;5.80;;;5.20;90.30;;;;;;5530213;26;20210;-87
2024/04/15 03:01:13;;;;;;;19.03;6.63;;;5.20;90.20;;;;;;5529227;26;20244;-85
2024/04/15 03:03:39;;;;;;;11.57;6.60;;;5.20;90.10;;;;;;5529930;26;20222;-86
2024/04/15 03:06:04;;;;;;;19.27;6.27;;;5.10;90.10;;;;;;5529069;26;20786;-85
2024/04/15 03:08:30;;;;;;;14.77;6.97;;;5.10;90.10;;;;;;5496878;26;20224;-85
2024/04/15 03:10:56;;;;;;;21.00;6.77;;;5.20;90.10;;;;;;5529055;26;20583;-85
2024/04/15 03:13:21;;;;;;;15.80;6.50;;;5.20;90.00;;;;;;5529415;26;20713;-85
2024/04/15 03:15:54;;;;;;;21.33;6.47;;;5.10;89.90;;;;;;5529431;26;20217;-85
2024/04/15 03:18:19;;;;;;;14.77;6.10;;;5.20;90.00;;;;;;5529320;26;20217;-85
2024/04/15 03:20:45;;;;;;;21.83;8.00;;;5.10;90.00;;;;;;5529330;26;20213;-85
2024/04/15 03:23:10;;;;;;;14.77;6.43;;;5.10;90.10;;;;;;5495285;26;20347;-84
2024/04/15 03:25:36;;;;;;;11.37;5.63;;;5.10;90.10;;;;;;5529027;26;20213;-86
2024/04/15 03:28:01;;;;;;;9.07;5.53;;;5.10;90.20;;;;;;5496287;26;20246;-86
2024/04/15 03:30:27;;;;;;;8.77;5.10;;;5.10;90.20;;;;;;5528756;26;20213;-86
2024/04/15 03:32:52;;;;;;;18.33;6.40;;;5.20;90.10;;;;;;5528830;26;20259;-86
2024/04/15 03:35:18;;;;;;;14.83;6.77;;;5.20;90.10;;;;;;5528979;26;20217;-85
2024/04/15 03:37:44;;;;;;;14.80;6.33;;;5.20;90.10;;;;;;5495643;26;20237;-84
2024/04/15 03:40:10;;;;;;;20.43;6.70;;;5.10;90.20;;;;;;5528719;26;20228;-86
2024/04/15 03:42:35;;;;;;;17.33;11.87;;;5.10;90.20;;;;;;5495632;26;20744;-85
2024/04/15 03:45:01;;;;;;;17.70;12.47;;;5.20;90.30;;;;;;5529459;26;20229;-86
2024/04/15 03:47:26;;;;;;;23.13;11.70;;;5.20;90.30;;;;;;5528497;26;20221;-85
2024/04/15 03:49:52;;;;;;;27.50;12.70;;;5.10;90.30;;;;;;5528773;26;20206;-86
2024/04/15 03:52:18;;;;;;;18.63;12.03;;;5.00;90.30;;;;;;5528705;26;20206;-85
2024/04/15 03:54:44;;;;;;;25.07;12.93;;;5.00;90.50;;;;;;5529036;26;20225;-85
2024/04/15 03:57:10;;;;;;;20.10;12.30;;;5.10;90.40;;;;;;5495650;26;20621;-85
2024/04/15 03:59:35;;;;;;;19.23;15.53;;;5.10;90.20;;;;;;5529063;26;20210;-86
2024/04/15 04:02:05;;;;;;;22.50;14.17;;;5.00;90.30;;;;;;5528581;26;20209;-86
2024/04/15 04:04:31;;;;;;;21.40;12.60;;;5.10;90.30;;;;;;5495828;26;20321;-85
2024/04/15 04:07:03;;;;;;;19.17;12.13;;;5.10;90.20;;;;;;5495888;26;20697;-85
2024/04/15 04:09:28;;;;;;;15.20;12.77;;;5.10;90.20;;;;;;5528981;26;20198;-85
2024/04/15 04:11:54;;;;;;;16.63;11.17;;;5.10;90.30;;;;;;5528450;26;20620;-84
2024/04/15 04:14:20;;;;;;;14.07;11.20;;;5.00;90.40;;;;;;5528593;26;20255;-85
2024/04/15 04:16:46;;;;;;;18.13;11.50;;;5.00;90.50;;;;;;5528537;26;20264;-85
2024/04/15 04:19:11;;;;;;;16.17;11.40;;;5.00;90.40;;;;;;5528630;26;20272;-85
2024/04/15 04:21:37;;;;;;;19.23;11.47;;;5.00;90.30;;;;;;5495635;26;20221;-85
2024/04/15 04:24:02;;;;;;;18.20;11.97;;;5.00;90.20;;;;;;5528162;26;20264;-86
2024/04/15 04:26:28;;;;;;;20.53;11.80;;;5.00;90.20;;;;;;5528044;26;20266;-86
2024/04/15 04:28:55;;;;;;;25.67;12.43;;;5.10;90.10;;;;;;5528510;26;20228;-85
2024/04/15 04:31:21;;;;;;;18.27;10.97;;;5.10;89.90;;;;;;5495367;26;20702;-85
2024/04/15 04:33:46;;;;;;;17.40;11.80;;;5.30;89.90;;;;;;5528889;26;20249;-86
2024/04/15 04:36:16;;;;;;;24.87;13.17;;;5.40;89.60;;;;;;5531373;26;20206;-86
2024/04/15 04:38:42;;;;;;;14.33;12.83;;;5.50;89.20;;;;;;5531426;26;20218;-85
2024/04/15 04:41:07;;;;;;;21.97;13.47;;;5.30;88.60;;;;;;5498881;26;20230;-86
2024/04/15 04:43:33;;;;;;;19.77;13.87;;;5.40;88.50;;;;;;5531348;26;20218;-85
2024/04/15 04:46:10;;;;;;;18.03;14.43;;;5.60;88.60;;;;;;5531517;26;20674;-85
2024/04/15 04:48:36;;;;;;;18.33;14.50;;;5.80;88.10;;;;;;5531527;26;20261;-87
2024/04/15 04:51:06;;;;;;;18.80;16.37;;;6.00;87.50;;;;;;5531253;26;20217;-86
2024/04/15 04:53:31;;;;;;;17.07;15.33;;;6.20;86.80;;;;;;5498547;26;20234;-85
2024/04/15 04:56:13;;;;;;;22.67;17.50;;;6.20;86.30;;;;;;5531292;26;20748;-86
2024/04/15 04:58:40;;;;;;;18.87;16.90;;;6.30;85.90;;;;;;5531530;26;20214;-86
2024/04/15 05:01:09;;;;;;;22.07;17.40;;;6.40;85.40;;;;;;5530970;26;20260;-85
2024/04/15 05:03:35;;;;;;;25.63;17.10;;;6.40;85.30;;;;;;5531343;26;20305;-85
2024/04/15 05:06:05;;;;;;;18.40;16.57;;;6.30;85.40;;;;;;5498724;26;20245;-85
2024/04/15 05:08:31;;;;;;;17.57;15.93;;;6.30;85.80;;;;;;5531515;26;20313;-86
2024/04/15 05:10:56;;;;;;;22.60;13.93;;;6.30;86.00;;;;;;5498739;26;20218;-85
2024/04/15 05:13:22;;;;;;;23.37;15.20;;;6.30;86.20;;;;;;5531362;26;20252;-86
2024/04/15 05:15:47;;;;;;;18.27;14.67;;;6.10;86.00;;;;;;5531148;26;20206;-86
2024/04/15 05:18:13;;;;;;;16.47;14.27;;;6.00;86.30;;;;;;5498087;26;20221;-85
2024/04/15 05:20:38;;;;;;;15.77;14.30;;;5.90;86.80;;;;;;5530910;26;20226;-85
2024/04/15 05:23:04;;;;;;;20.13;12.90;;;5.80;87.20;;;;;;5497790;26;20256;-89
2024/04/15 05:25:29;;;;;;;20.23;13.77;;;5.60;87.70;;;;;;5530981;26;20206;-86
2024/04/15 05:27:55;;;;;;;12.70;8.73;;;5.60;88.40;;;;;;5530738;26;20318;-86
2024/04/15 05:30:20;;;;;;;18.73;7.90;;;5.70;88.70;;;;;;5531211;26;20213;-86
2024/04/15 05:32:46;;;;;;;14.50;8.70;;;5.80;88.70;;;;;;5498171;26;20237;-85
2024/04/15 05:35:11;;;;;;;16.60;8.23;;;5.80;88.50;;;;;;5530772;26;20256;-86
2024/04/15 05:37:37;;;;;;;20.33;9.17;;;5.90;88.50;;;;;;5530631;26;20225;-86
2024/04/15 05:40:03;;;;;;;15.40;8.57;;;5.90;88.40;;;;;;5530455;26;20272;-86
2024/04/15 05:42:29;;;;;;;13.80;8.33;;;5.90;88.40;;;;;;5530364;26;20218;-85
2024/04/15 05:44:55;;;;;;;26.07;10.40;;;6.00;88.50;;;;;;5497741;26;20326;-85
2024/04/15 05:47:20;;;;;;;13.57;7.87;;;6.00;88.50;;;;;;5529524;26;20262;-86
2024/04/15 05:49:46;;;;;;;14.87;7.47;;;6.00;88.80;;;;;;5530480;26;20206;-85
2024/04/15 05:52:11;;;;;;;24.20;8.17;;;6.00;89.10;;;;;;5497780;26;20710;-86
2024/04/15 05:54:37;;;;;;;9.73;6.73;;;6.10;89.30;;;;;;5497631;26;20702;-85
2024/04/15 05:57:03;;;;;;;23.10;8.43;;;6.10;89.70;;;;;;5498015;26;20256;-86
2024/04/15 05:59:29;;;;;;;16.23;6.40;;;6.10;89.80;;;;;;5530453;26;20697;-86
2024/04/15 06:01:55;;;;;;;22.37;6.50;;;6.30;89.90;;;;;;5497481;26;20222;-86
2024/04/15 06:04:20;;;;;;;11.30;6.37;;;6.30;89.80;;;;;;5530329;26;20287;-86
2024/04/15 06:06:47;;;;;;;13.20;6.93;;;6.40;89.80;;;;;;5530522;26;20218;-86
2024/04/15 06:09:12;;;;;;;13.30;6.40;;;6.50;89.70;;;;;;5529963;26;20210;-86
2024/04/15 06:11:38;;;;;;;14.80;7.33;;;6.50;89.50;;;;;;5530207;26;20567;-86
2024/04/15 06:14:03;;;;;;;23.50;7.93;;;6.60;89.20;;;;;;5497557;26;20233;-89
2024/04/15 06:16:29;;;;;;;15.90;9.27;;;6.80;89.10;;;;;;5529908;26;20603;-86
2024/04/15 06:18:54;;;;;;;11.70;6.70;;;6.80;89.10;;;;;;5529904;26;20210;-84
2024/04/15 06:21:20;;;;;;;17.40;6.03;;;6.90;89.10;;;;;;5496567;26;20322;-90
2024/04/15 06:23:46;;;;;;;21.87;7.07;;;6.80;88.90;;;;;;5530270;26;20575;-86
2024/04/15 06:26:12;;;;;;;22.30;6.73;;;6.80;88.70;;;;;;5529977;26;20249;-85
2024/04/15 06:28:37;;;;;;;15.17;6.70;;;6.80;88.60;;;;;;5530053;26;20277;-86
2024/04/15 06:31:03;;;;;;;12.57;6.67;;;6.80;88.60;;;;;;5530067;26;20210;-85
2024/04/15 06:33:28;;;;;;;12.93;6.87;;;6.90;88.60;;;;;;5530642;26;20253;-85
2024/04/15 06:35:54;;;;;;;15.73;7.03;;;6.90;88.70;;;;;;5529448;26;20252;-87
2024/04/15 06:38:20;;;;;;;12.03;7.47;;;7.00;88.90;;;;;;5529608;26;20226;-86
2024/04/15 06:40:45;;;;;;;17.57;7.87;;;7.00;88.90;;;;;;5529780;26;20230;-85
2024/04/15 06:43:11;;;;;;;17.47;7.90;;;7.00;89.00;;;;;;5529323;26;20233;-86
2024/04/15 06:45:37;;;;;;;13.20;7.10;;;7.10;89.00;;;;;;5529148;26;20210;-85
2024/04/15 06:48:03;;;;;;;13.53;6.50;;;7.30;89.20;;;;;;5528974;26;20607;-86
2024/04/15 06:50:29;;;;;;;21.50;6.87;;;7.40;88.80;;;;;;5496523;26;20610;-85
2024/04/15 06:52:54;;;;;;;13.03;6.60;;;7.70;88.80;;;;;;5529084;26;20262;-86
2024/04/15 06:55:20;;;;;;;14.03;6.50;;;7.60;87.40;;;;;;5529447;26;20210;-90
2024/04/15 06:57:45;;;;;;;10.37;6.50;;;7.80;87.60;;;;;;5527015;26;20272;-89
2024/04/15 07:00:12;;;;;;;16.30;6.80;;;7.80;87.50;;;;;;5529146;26;20241;-88
2024/04/15 07:02:37;;;;;;;15.67;7.30;;;7.90;87.20;;;;;;5529194;26;20550;-86
2024/04/15 07:05:03;;;;;;;12.33;6.60;;;8.00;86.50;;;;;;5529504;26;20261;-86
2024/04/15 07:07:29;;;;;;;17.20;6.57;;;8.00;86.30;;;;;;5496608;26;20261;-85
2024/04/15 07:09:54;;;;;;;19.63;6.83;;;8.10;86.60;;;;;;5529455;26;20210;-86
2024/04/15 07:12:20;;;;;;;11.30;6.80;;;8.20;86.40;;;;;;5496625;26;20249;-85
2024/04/15 07:14:46;;;;;;;11.47;6.27;;;8.20;85.40;;;;;;5529173;26;20612;-86
2024/04/15 07:17:11;;;;;;;12.23;6.87;;;8.40;86.20;;;;;;5496472;26;20214;-86
2024/04/15 07:19:37;;;;;;;9.77;6.67;;;8.40;85.30;;;;;;5529075;26;20559;-84
2024/04/15 07:22:03;;;;;;;13.97;6.13;;;8.50;84.40;;;;;;5528901;26;20714;-86
2024/04/15 07:24:29;;;;;;;10.87;6.20;;;8.60;84.40;;;;;;5496110;26;20234;-85
2024/04/15 07:26:55;;;;;;;9.70;6.63;;;8.70;84.90;;;;;;5529178;26;20214;-87
2024/04/15 07:29:20;;;;;;;8.43;5.90;;;8.80;84.30;;;;;;5528531;26;20252;-85
2024/04/15 07:31:46;;;;;;;14.87;11.63;;;8.90;83.70;;;;;;5528977;26;20211;-86
2024/04/15 07:34:11;;;;;;;13.43;12.03;;;9.00;83.60;;;;;;5528720;26;20222;-86
2024/04/15 07:36:37;;;;;;;12.70;11.60;;;9.10;83.40;;;;;;5528901;26;20260;-87
2024/04/15 07:39:03;;;;;;;15.30;11.70;;;9.30;83.50;;;;;;5496069;26;20234;-86
2024/04/15 07:41:28;;;;;;;17.47;13.50;;;9.20;83.10;;;;;;5528792;26;20202;-86
2024/04/15 07:43:54;;;;;;;17.77;13.90;;;9.30;82.80;;;;;;5528521;26;20222;-86
2024/04/15 07:46:20;;;;;;;15.90;14.40;;;9.50;83.70;;;;;;5528853;26;20218;-86
2024/04/15 07:48:46;;;;;;;27.83;15.20;;;9.50;82.80;;;;;;5528566;26;20693;-85
2024/04/15 07:51:11;;;;;;;17.03;13.80;;;9.50;81.80;;;;;;5529284;26;20214;-86
2024/04/15 07:53:37;;;;;;;16.40;13.67;;;9.70;83.30;;;;;;5528163;26;20569;-87
2024/04/15 07:56:02;;;;;;;14.57;12.60;;;9.70;82.40;;;;;;5528292;26;20245;-85
2024/04/15 07:58:30;;;;;;;26.73;17.33;;;9.80;81.90;;;;;;5527914;26;20206;-85
2024/04/15 08:00:56;;;;;;;16.67;12.93;;;9.70;80.90;;;;;;5528295;26;20206;-86
2024/04/15 08:03:22;;;;;;;16.23;14.87;;;9.90;82.40;;;;;;5527913;26;20222;-88
2024/04/15 08:05:47;;;;;;;16.50;15.10;;;9.80;80.60;;;;;;5528273;26;20286;-87
2024/04/15 08:08:13;;;;;;;15.50;14.13;;;10.10;81.30;;;;;;5495397;26;20222;-85
2024/04/15 08:10:38;;;;;;;16.90;15.47;;;10.00;81.00;;;;;;5528198;26;20214;-89
2024/04/15 08:13:04;;;;;;;18.90;16.47;;;9.80;80.20;;;;;;5495225;26;20229;-86
2024/04/15 08:15:32;;;;;;;20.87;17.33;;;10.00;81.30;;;;;;5495616;26;20218;-87
2024/04/15 08:18:00;;;;;;;22.77;15.23;;;10.10;79.80;;;;;;5528343;26;20214;-85
2024/04/15 08:20:25;;;;;;;17.60;15.83;;;10.30;79.40;;;;;;5527956;26;20252;-86
2024/04/15 08:22:51;;;;;;;18.80;16.87;;;10.50;80.10;;;;;;5528109;26;20245;-86
2024/04/15 08:25:17;;;;;;;19.77;16.80;;;10.60;78.00;;;;;;5494933;26;20612;-87
2024/04/15 08:27:42;;;;;;;19.43;17.50;;;10.70;78.50;;;;;;5527347;26;20206;-88
2024/04/15 08:30:08;;;;;;;20.80;18.90;;;10.80;79.30;;;;;;5527605;26;20257;-87
2024/04/15 08:32:34;;;;;;;22.80;20.57;;;10.60;78.00;;;;;;5527821;26;20210;-86
2024/04/15 08:35:01;;;;;;;22.53;20.37;;;10.70;76.80;;;;;;5527728;26;20226;-87
2024/04/15 08:37:26;;;;;;;13.27;11.53;;;10.80;78.30;;;;;;5527843;26;20290;-87
2024/04/15 08:39:52;;;;;;;13.07;10.43;;;10.50;76.30;;;;;;5495003;26;20230;-87
2024/04/15 08:42:44;;;;;;;16.47;11.53;;;10.70;77.10;;;;;;5528154;26;20214;-86
2024/04/15 08:45:20;;;;;;;13.17;11.93;;;10.60;76.20;;;;;;5527340;26;20646;-87
2024/04/15 08:47:51;;;;;;;13.30;12.30;;;10.70;75.20;;;;;;5527604;26;20174;-86
2024/04/15 08:50:18;;;;;;;12.77;11.67;;;10.70;74.20;;;;;;5526794;26;20183;-88
2024/04/15 08:52:44;;;;;;;12.93;11.73;;;10.80;72.80;;;;;;5527246;26;20286;-87
2024/04/15 08:55:11;;;;;;;13.33;12.13;;;10.80;74.20;;;;;;5526633;26;20244;-88
2024/04/15 08:57:38;;;;;;;15.70;12.03;;;10.80;74.60;;;;;;5494603;26;20249;-85
2024/04/15 09:00:05;;;;;;;15.53;13.93;;;10.80;73.60;;;;;;5494211;26;20741;-85
2024/04/15 09:02:31;;;;;;;15.30;13.73;;;10.80;72.30;;;;;;5527203;26;20207;-90
2024/04/15 09:04:57;;;;;;;26.23;23.97;;;10.90;71.90;;;;;;5494350;26;20257;-86
2024/04/15 09:07:23;;;;;;;27.73;25.13;;;11.10;73.10;;;;;;5527299;26;20754;-86
2024/04/15 09:09:48;;;;;;;27.13;24.83;;;11.00;71.60;;;;;;5526882;26;20222;-86
2024/04/15 09:12:14;;;;;;;28.67;26.13;;;11.20;71.90;;;;;;5526478;26;20598;-86
2024/04/15 09:14:39;;;;;;;29.83;27.00;;;11.30;71.80;;;;;;5526539;26;20234;-86
2024/04/15 09:17:05;;;;;;;28.57;26.20;;;11.20;69.90;;;;;;5526479;26;20561;-87
2024/04/15 09:19:32;;;;;;;24.53;22.37;;;11.30;72.20;;;;;;5526357;26;20214;-87
2024/04/15 09:22:00;;;;;;;26.67;24.67;;;11.30;71.60;;;;;;5528981;26;20218;-86
2024/04/15 09:24:26;;;;;;;28.53;25.93;;;11.30;68.20;;;;;;5531315;26;20253;-85
2024/04/15 09:26:51;;;;;;;24.77;22.53;;;11.30;68.20;;;;;;5530882;26;20210;-85
2024/04/15 09:29:18;;;;;;;27.43;24.97;;;11.40;69.90;;;;;;5530636;26;20318;-87
2024/04/15 09:31:44;;;;;;;26.33;23.93;;;11.40;69.60;;;;;;5530204;26;20207;-85
2024/04/15 09:34:10;;;;;;;20.90;16.70;;;11.50;69.00;;;;;;5531051;26;20222;-86
2024/04/15 09:36:41;;;;;;;19.10;16.77;;;11.60;71.00;;;;;;5530226;26;20214;-86
2024/04/15 09:39:07;;;;;;;18.63;16.93;;;11.60;70.70;;;;;;5530850;26;20350;-85
2024/04/15 09:41:34;;;;;;;19.23;17.23;;;11.60;69.70;;;;;;5530414;26;20262;-85
2024/04/15 09:44:00;;;;;;;18.37;16.60;;;11.80;69.00;;;;;;5497293;26;20257;-86
2024/04/15 09:46:31;;;;;;;19.37;17.40;;;12.00;68.00;;;;;;5497717;26;20600;-85
2024/04/15 09:48:57;;;;;;;18.20;16.30;;;12.30;69.90;;;;;;5531301;26;20171;-85
2024/04/15 09:51:23;;;;;;;19.33;17.70;;;12.10;67.90;;;;;;5530298;26;20282;-86
2024/04/15 09:53:52;;;;;;;20.67;18.67;;;12.30;68.30;;;;;;5497846;26;20234;-86
2024/04/15 09:56:29;;;;;;;20.60;18.60;;;12.80;67.20;;;;;;5530194;26;20745;-86
2024/04/15 09:58:56;;;;;;;20.60;18.50;;;12.80;66.70;;;;;;5530032;26;20249;-86
2024/04/15 10:01:31;;;;;;;23.10;19.23;;;13.00;66.70;;;;;;5497277;26;20226;-85
2024/04/15 10:04:01;;;;;;;24.07;19.20;;;12.90;65.50;;;;;;5530467;26;20709;-86
2024/04/15 10:06:42;;;;;;;20.17;18.60;;;12.50;64.60;;;;;;5497362;26;20626;-85
2024/04/15 10:09:08;;;;;;;20.97;18.83;;;12.20;65.60;;;;;;5530383;26;20240;-85
2024/04/15 10:11:35;;;;;;;19.43;17.80;;;12.00;67.50;;;;;;5530275;26;20210;-86
2024/04/15 10:14:01;;;;;;;19.73;18.03;;;12.10;68.00;;;;;;5531057;26;20222;-85
2024/04/15 10:16:26;;;;;;;22.00;19.80;;;12.20;67.80;;;;;;5495964;26;20218;-86
2024/04/15 10:18:53;;;;;;;19.97;18.27;;;12.60;67.80;;;;;;5528489;26;20263;-85
2024/04/15 10:21:19;;;;;;;20.13;18.40;;;12.80;64.60;;;;;;5528361;26;20210;-84
2024/04/15 10:23:45;;;;;;;19.37;17.67;;;12.50;65.70;;;;;;5528614;26;20226;-87
2024/04/15 10:26:11;;;;;;;20.87;18.83;;;12.50;66.20;;;;;;5528296;26;20210;-87
2024/04/15 10:28:36;;;;;;;20.03;18.23;;;12.50;65.20;;;;;;5528632;26;20680;-86
2024/04/15 10:31:02;;;;;;;20.73;18.70;;;12.50;67.40;;;;;;5528253;26;20206;-86
2024/04/15 10:33:28;;;;;;;19.67;18.00;;;12.80;65.90;;;;;;5528241;26;20733;-85
2024/04/15 10:35:54;;;;;;;22.07;19.67;;;13.20;61.90;;;;;;5528714;26;20561;-85
2024/04/15 10:38:19;;;;;;;22.07;20.10;;;13.00;60.80;;;;;;5528311;26;20249;-86
2024/04/15 10:40:48;;;;;;;20.97;18.90;;;13.00;61.80;;;;;;5528810;26;20576;-86
2024/04/15 10:43:18;;;;;;;23.03;20.13;;;12.70;65.00;;;;;;5528355;26;20310;-86
2024/04/15 10:45:47;;;;;;;20.70;18.67;;;12.70;63.80;;;;;;5528317;26;20210;-86
2024/04/15 10:48:13;;;;;;;20.87;18.87;;;12.40;64.40;;;;;;5528555;26;20253;-86
2024/04/15 10:50:40;;;;;;;20.63;18.57;;;12.30;64.60;;;;;;5528424;26;20214;-86
2024/04/15 10:53:05;;;;;;;20.33;18.40;;;12.50;65.60;;;;;;5495864;26;20260;-86
2024/04/15 10:55:31;;;;;;;20.80;18.73;;;12.80;66.40;;;;;;5528372;26;20214;-86
2024/04/15 10:57:57;;;;;;;22.83;20.73;;;12.90;64.20;;;;;;5495760;26;20554;-85
2024/04/15 11:00:23;;;;;;;23.93;21.53;;;12.70;61.10;;;;;;5528838;26;20266;-85
2024/04/15 11:02:53;;;;;;;25.93;22.87;;;12.70;62.40;;;;;;5528187;26;20257;-86
2024/04/15 11:05:21;;;;;;;22.93;21.07;;;12.50;59.00;;;;;;5528207;26;20210;-86
2024/04/15 11:07:47;;;;;;;23.17;21.27;;;12.50;61.40;;;;;;5528351;26;20593;-86
2024/04/15 11:10:14;;;;;;;22.47;20.73;;;12.30;61.80;;;;;;5528271;26;20277;-85
2024/04/15 11:12:41;;;;;;;23.90;21.83;;;12.10;62.10;;;;;;5528319;26;20210;-86
2024/04/15 11:15:10;;;;;;;26.07;22.07;;;12.00;62.90;;;;;;5495494;26;20241;-85
2024/04/15 11:17:35;;;;;;;23.87;21.87;;;12.00;61.90;;;;;;5528036;26;20260;-85
2024/04/15 11:20:04;;;;;;;23.30;21.37;;;11.90;63.00;;;;;;5528193;26;20257;-85
2024/04/15 11:22:29;;;;;;;23.70;21.57;;;11.80;63.30;;;;;;5528101;26;20304;-85
2024/04/15 11:24:55;;;;;;;24.57;21.90;;;11.90;63.70;;;;;;5495498;26;20265;-85
2024/04/15 11:27:23;;;;;;;23.30;21.33;;;11.90;64.50;;;;;;5528461;26;20686;-85
2024/04/15 11:29:49;;;;;;;22.67;20.77;;;12.00;64.20;;;;;;5528164;26;20693;-85
2024/04/15 11:32:15;;;;;;;23.23;21.13;;;11.90;65.80;;;;;;5528060;26;20206;-86
2024/04/15 11:34:42;;;;;;;23.07;20.80;;;11.90;66.20;;;;;;5495331;26;20722;-85
2024/04/15 11:37:08;;;;;;;24.33;21.90;;;11.70;66.30;;;;;;5527990;26;20210;-85
2024/04/15 11:39:34;;;;;;;22.10;20.20;;;11.70;67.10;;;;;;5527962;26;20575;-85
2024/04/15 11:41:59;;;;;;;21.37;19.67;;;11.60;66.80;;;;;;5528200;26;20179;-86
2024/04/15 11:44:25;;;;;;;21.73;19.77;;;11.50;67.40;;;;;;5527090;26;20222;-85
2024/04/15 11:46:53;;;;;;;20.77;18.93;;;11.40;69.10;;;;;;5527845;26;20567;-87
2024/04/15 11:49:18;;;;;;;21.27;19.57;;;11.40;69.10;;;;;;5527842;26;20218;-86
2024/04/15 11:51:46;;;;;;;20.93;18.90;;;11.40;69.10;;;;;;5527933;26;20252;-86
2024/04/15 11:54:11;;;;;;;20.53;18.73;;;11.10;69.50;;;;;;5495262;26;20721;-86
2024/04/15 11:56:37;;;;;;;21.07;18.97;;;10.90;70.90;;;;;;5495486;26;20214;-85
2024/04/15 11:59:04;;;;;;;19.83;17.80;;;10.70;73.40;;;;;;5528021;26;20633;-85
2024/04/15 12:01:29;;;;;;;16.00;14.60;;;10.60;75.70;;;;;;5528231;26;20214;-85
2024/04/15 12:03:55;;;;;;;18.73;15.80;;;10.60;77.30;;;;;;5528202;26;20701;-85
2024/04/15 12:06:21;;;;;;;17.77;14.70;;;10.60;77.70;;;;;;5495037;26;20736;-85
2024/04/15 12:08:47;;;;;;;19.13;17.30;;;10.80;78.90;;;;;;5495127;26;20282;-86
2024/04/15 12:11:13;;;;;;;21.50;19.37;;;10.80;74.50;;;;;;5527890;26;20214;-85
2024/04/15 12:13:40;;;;;;;19.30;17.30;;;11.00;71.50;;;;;;5527535;26;20718;-85
2024/04/15 12:16:06;;;;;;;18.33;16.63;;;11.20;74.30;;;;;;5527753;26;20256;-85
2024/04/15 12:18:32;;;;;;;17.13;15.50;;;11.40;74.90;;;;;;5527425;26;20226;-85
2024/04/15 12:20:57;;;;;;;18.33;16.40;;;11.80;76.00;;;;;;5527654;26;20554;-85
2024/04/15 12:23:23;;;;;;;20.40;18.23;;;12.30;74.90;;;;;;5527268;26;20582;-85
2024/04/15 12:25:49;;;;;;;21.53;19.23;;;12.00;71.20;;;;;;5527199;26;20210;-85
2024/04/15 12:28:14;;;;;;;21.53;19.40;;;11.80;70.40;;;;;;5527570;26;20671;-85
2024/04/15 12:30:40;;;;;;;21.27;19.13;;;11.80;70.90;;;;;;5494645;26;20309;-85